createdAt,value
2018-06-23T00:00:53.898Z,75.40
2018-06-23T00:03:22.124Z,75.70
2018-06-23T00:05:50.387Z,75.70
2018-06-23T00:08:18.605Z,76.30
2018-06-23T00:10:46.847Z,76.40
2018-06-23T00:13:15.151Z,76.10
2018-06-23T00:15:43.406Z,76.40
2018-06-23T00:18:11.635Z,75.70
2018-06-23T00:20:39.860Z,76.10
2018-06-23T00:23:08.115Z,76.00
2018-06-23T00:25:41.800Z,76.10
2018-06-23T00:28:10.091Z,76.70
2018-06-23T00:30:38.326Z,76.70
2018-06-23T00:33:06.624Z,76.70
2018-06-23T00:35:34.872Z,75.80
2018-06-23T00:38:03.087Z,76.10
2018-06-23T00:40:31.347Z,75.60
2018-06-23T00:42:59.534Z,75.30
2018-06-23T00:45:27.777Z,75.30
2018-06-23T00:47:55.996Z,74.60
2018-06-23T00:50:24.243Z,75.20
2018-06-23T00:52:52.463Z,75.10
2018-06-23T00:55:20.750Z,76.00
2018-06-23T00:57:48.960Z,75.60
2018-06-23T01:00:17.167Z,77.00
2018-06-23T01:02:45.406Z,77.60
2018-06-23T01:05:13.624Z,78.30
2018-06-23T01:07:41.871Z,78.50
2018-06-23T01:10:10.094Z,77.30
2018-06-23T01:12:38.323Z,77.20
2018-06-23T01:15:06.541Z,76.20
2018-06-23T01:17:34.803Z,75.70
2018-06-23T01:20:03.016Z,75.50
2018-06-23T01:22:31.251Z,75.90
2018-06-23T01:24:59.478Z,76.40
2018-06-23T01:27:27.786Z,76.10
2018-06-23T01:29:55.986Z,76.20
2018-06-23T01:34:52.226Z,76.40
2018-06-23T01:37:20.449Z,76.70
2018-06-23T01:39:48.979Z,76.80
2018-06-23T01:42:17.215Z,77.20
2018-06-23T01:44:45.443Z,77.20
2018-06-23T01:47:13.667Z,76.90
2018-06-23T01:49:41.916Z,76.70
2018-06-23T01:52:10.139Z,76.40
2018-06-23T01:54:38.347Z,76.10
2018-06-23T01:57:06.568Z,76.20
2018-06-23T01:59:34.810Z,75.00
2018-06-23T02:02:03.363Z,75.00
2018-06-23T02:04:31.571Z,74.60
2018-06-23T02:07:00.227Z,74.70
2018-06-23T02:09:28.469Z,74.20
2018-06-23T02:11:56.714Z,73.90
2018-06-23T02:14:30.270Z,74.80
2018-06-23T02:17:03.760Z,74.00
2018-06-23T02:22:12.255Z,74.60
2018-06-23T02:24:45.910Z,74.20
2018-06-23T02:27:19.667Z,74.80
2018-06-23T02:29:53.296Z,74.80
2018-06-23T02:35:04.505Z,75.20
2018-06-23T02:37:34.403Z,74.70
2018-06-23T02:42:30.887Z,74.80
2018-06-23T02:44:59.139Z,74.80
2018-06-23T02:47:27.381Z,74.70
2018-06-23T02:49:56.975Z,74.70
2018-06-23T02:52:25.214Z,73.80
2018-06-23T02:54:53.551Z,74.30
2018-06-23T02:57:21.823Z,74.60
2018-06-23T02:59:50.084Z,74.60
2018-06-23T03:02:18.315Z,74.50
2018-06-23T03:04:46.568Z,74.20
2018-06-23T03:07:14.946Z,73.50
2018-06-23T03:09:43.185Z,74.00
2018-06-23T03:12:11.464Z,74.70
2018-06-23T03:14:39.699Z,74.40
2018-06-23T03:17:13.276Z,74.50
2018-06-23T03:19:41.540Z,73.80
2018-06-23T03:22:09.747Z,72.80
2018-06-23T03:24:38.007Z,71.90
2018-06-23T03:27:06.240Z,72.30
2018-06-23T03:32:02.674Z,72.50
2018-06-23T03:34:31.258Z,72.40
2018-06-23T03:36:59.492Z,73.20
2018-06-23T03:39:28.084Z,73.50
2018-06-23T03:41:56.782Z,73.70
2018-06-23T03:44:25.140Z,73.90
2018-06-23T03:46:53.483Z,74.00
2018-06-23T03:49:21.709Z,73.60
2018-06-23T03:51:49.958Z,73.40
2018-06-23T03:54:18.159Z,73.90
2018-06-23T03:56:46.374Z,73.50
2018-06-23T03:59:14.575Z,72.70
2018-06-23T04:01:43.015Z,72.90
2018-06-23T04:04:11.272Z,73.90
2018-06-23T04:06:39.581Z,73.70
2018-06-23T04:09:09.415Z,74.20
2018-06-23T04:11:37.947Z,74.60
2018-06-23T04:14:06.170Z,75.00
2018-06-23T04:16:34.647Z,74.40
2018-06-23T04:19:02.876Z,74.00
2018-06-23T04:21:31.463Z,73.60
2018-06-23T04:26:28.630Z,72.50
2018-06-23T04:28:57.203Z,72.30
2018-06-23T04:31:25.427Z,72.10
2018-06-23T04:33:53.663Z,70.70
2018-06-23T04:38:49.868Z,71.60
2018-06-23T04:41:18.092Z,69.20
2018-06-23T04:43:46.332Z,70.30
2018-06-23T04:46:14.582Z,69.30
2018-06-23T04:48:42.851Z,68.40
2018-06-23T04:51:11.086Z,68.40
2018-06-23T04:53:41.488Z,67.90
2018-06-23T04:56:09.736Z,68.00
2018-06-23T04:58:38.211Z,68.90
2018-06-23T05:01:06.461Z,68.20
2018-06-23T05:03:34.675Z,66.80
2018-06-23T05:06:03.063Z,66.00
2018-06-23T05:08:31.342Z,65.40
2018-06-23T05:10:59.611Z,64.70
2018-06-23T05:13:28.080Z,65.00
2018-06-23T05:15:56.294Z,64.30
2018-06-23T05:18:24.854Z,65.00
2018-06-23T05:20:53.068Z,65.60
2018-06-23T05:23:21.329Z,65.80
2018-06-23T05:25:49.558Z,66.80
2018-06-23T05:28:17.798Z,66.90
2018-06-23T05:30:46.100Z,65.70
2018-06-23T05:33:17.431Z,66.80
2018-06-23T05:35:45.692Z,66.60
2018-06-23T05:38:13.974Z,67.60
2018-06-23T05:40:42.384Z,67.40
2018-06-23T05:43:10.639Z,67.00
2018-06-23T05:45:39.051Z,66.70
2018-06-23T05:48:07.356Z,66.60
2018-06-23T05:50:35.606Z,66.30
2018-06-23T05:53:04.127Z,67.00
2018-06-23T05:55:32.538Z,68.00
2018-06-23T05:58:00.891Z,68.90
2018-06-23T06:00:29.168Z,69.60
2018-06-23T06:02:57.608Z,69.70
2018-06-23T06:05:25.855Z,70.10
2018-06-23T06:07:54.111Z,68.50
2018-06-23T06:10:22.345Z,66.90
2018-06-23T06:12:50.577Z,65.40
2018-06-23T06:15:18.783Z,64.40
2018-06-23T06:17:47.027Z,62.60
2018-06-23T06:20:16.005Z,62.90
2018-06-23T06:22:46.391Z,62.90
2018-06-23T06:25:15.340Z,63.90
2018-06-23T06:27:43.600Z,64.80
2018-06-23T06:30:12.312Z,66.90
2018-06-23T06:35:08.703Z,69.00
2018-06-23T06:37:36.924Z,69.20
2018-06-23T06:40:05.918Z,70.00
2018-06-23T06:42:34.129Z,70.20
2018-06-23T06:47:30.375Z,71.30
2018-06-23T06:49:58.603Z,70.50
2018-06-23T06:52:26.824Z,71.30
2018-06-23T06:54:55.116Z,71.10
2018-06-23T06:57:23.404Z,72.50
2018-06-23T06:59:51.655Z,72.90
2018-06-23T07:02:19.892Z,74.20
2018-06-23T07:04:48.159Z,77.10
2018-06-23T07:07:16.399Z,78.20
2018-06-23T07:09:44.660Z,81.60
2018-06-23T07:12:12.892Z,84.30
2018-06-23T07:14:41.116Z,85.00
2018-06-23T07:17:09.341Z,86.80
2018-06-23T07:19:37.592Z,87.90
2018-06-23T07:22:05.800Z,89.00
2018-06-23T07:24:34.082Z,90.10
2018-06-23T07:27:02.300Z,91.00
2018-06-23T07:29:30.720Z,90.80
2018-06-23T07:31:58.931Z,91.20
2018-06-23T07:34:27.215Z,91.30
2018-06-23T07:36:55.415Z,91.40
2018-06-23T07:41:51.804Z,90.70
2018-06-23T07:44:20.053Z,90.70
2018-06-23T07:46:48.350Z,90.70
2018-06-23T07:49:16.602Z,90.30
2018-06-23T07:51:44.911Z,91.20
2018-06-23T07:54:13.721Z,90.90
2018-06-23T07:56:42.325Z,91.00
2018-06-23T07:59:10.790Z,89.90
2018-06-23T08:04:08.156Z,91.40
2018-06-23T08:06:36.501Z,91.10
2018-06-23T08:09:07.460Z,91.00
2018-06-23T08:11:35.734Z,92.10
2018-06-23T08:14:04.078Z,91.80
2018-06-23T08:16:33.571Z,91.50
2018-06-23T08:19:01.800Z,92.20
2018-06-23T08:21:30.047Z,92.50
2018-06-23T08:23:58.367Z,92.50
2018-06-23T08:26:26.804Z,92.90
2018-06-23T08:28:54.984Z,92.90
2018-06-23T08:31:23.258Z,93.10
2018-06-23T08:33:51.521Z,92.60
2018-06-23T08:36:20.001Z,92.60
2018-06-23T08:38:48.234Z,92.70
2018-06-23T08:43:44.739Z,92.00
2018-06-23T08:46:12.970Z,91.40
2018-06-23T08:48:41.394Z,90.70
2018-06-23T08:53:37.850Z,89.60
2018-06-23T08:56:06.113Z,89.30
2018-06-23T08:58:34.323Z,90.60
2018-06-23T09:03:30.709Z,90.20
2018-06-23T09:05:58.940Z,86.50
2018-06-23T09:08:27.391Z,80.10
2018-06-23T09:10:55.741Z,77.90
2018-06-23T09:13:24.036Z,79.10
2018-06-23T09:15:52.330Z,80.80
2018-06-23T09:18:20.784Z,83.10
2018-06-23T09:20:50.095Z,83.40
2018-06-23T09:23:18.432Z,84.80
2018-06-23T09:25:47.423Z,83.30
2018-06-23T09:28:15.700Z,83.70
2018-06-23T09:30:43.927Z,82.20
2018-06-23T09:33:12.332Z,79.80
2018-06-23T09:35:40.619Z,80.40
2018-06-23T09:38:08.856Z,83.10
2018-06-23T09:40:37.285Z,75.50
2018-06-23T09:43:05.533Z,78.10
2018-06-23T09:45:33.926Z,78.40
2018-06-23T09:48:02.552Z,80.30
2018-06-23T09:50:30.978Z,81.90
2018-06-23T09:52:59.245Z,76.90
2018-06-23T09:57:55.882Z,68.60
2018-06-23T10:00:27.999Z,65.20
2018-06-23T10:02:56.595Z,58.40
2018-06-23T10:05:25.100Z,52.60
2018-06-23T10:07:53.448Z,50.40
2018-06-23T10:10:21.722Z,49.00
2018-06-23T10:12:49.991Z,45.50
2018-06-23T10:15:18.419Z,43.00
2018-06-23T10:17:46.743Z,46.40
2018-06-23T10:20:14.967Z,52.00
2018-06-23T10:22:43.274Z,53.00
2018-06-23T10:25:11.531Z,54.00
2018-06-23T10:30:07.888Z,54.40
2018-06-23T10:32:36.270Z,57.30
2018-06-23T10:35:04.956Z,55.30
2018-06-23T10:37:33.233Z,54.30
2018-06-23T10:40:01.523Z,54.70
2018-06-23T10:42:29.737Z,55.90
2018-06-23T10:44:58.008Z,50.60
2018-06-23T10:47:26.237Z,51.40
2018-06-23T10:49:54.496Z,50.30
2018-06-23T10:52:22.730Z,52.10
2018-06-23T10:54:50.979Z,51.30
2018-06-23T10:57:19.269Z,52.50
2018-06-23T10:59:47.512Z,53.90
2018-06-23T11:02:15.714Z,54.30
2018-06-23T11:04:44.003Z,53.70
2018-06-23T11:07:12.211Z,51.50
2018-06-23T11:09:40.515Z,53.40
2018-06-23T11:12:08.780Z,56.60
2018-06-23T11:14:37.012Z,58.80
2018-06-23T11:17:05.290Z,53.30
2018-06-23T11:19:33.559Z,48.30
2018-06-23T11:22:01.765Z,47.30
2018-06-23T11:24:30.082Z,47.20
2018-06-23T11:26:58.265Z,48.60
2018-06-23T11:29:26.483Z,49.80
2018-06-23T11:31:54.742Z,51.50
2018-06-23T11:34:23.017Z,51.30
2018-06-23T11:36:51.499Z,52.30
2018-06-23T11:39:19.730Z,51.00
2018-06-23T11:41:48.085Z,47.90
2018-06-23T11:44:16.307Z,51.00
2018-06-23T11:46:44.589Z,48.20
2018-06-23T11:49:12.877Z,47.50
2018-06-23T11:51:41.199Z,48.40
2018-06-23T11:54:09.495Z,48.50
2018-06-23T11:56:37.756Z,46.20
2018-06-23T11:59:05.980Z,48.90
2018-06-23T12:01:34.311Z,51.60
2018-06-23T12:04:02.859Z,50.70
2018-06-23T12:06:31.795Z,52.00
2018-06-23T12:09:00.070Z,52.30
2018-06-23T12:11:28.326Z,53.60
2018-06-23T12:13:56.700Z,54.30
2018-06-23T12:16:24.999Z,50.00
2018-06-23T12:18:53.287Z,48.90
2018-06-23T12:21:21.527Z,49.20
2018-06-23T12:23:49.759Z,48.10
2018-06-23T12:26:18.024Z,48.10
2018-06-23T12:31:14.353Z,49.70
2018-06-23T12:33:42.623Z,49.30
2018-06-23T12:36:10.878Z,51.80
2018-06-23T12:38:39.105Z,50.70
2018-06-23T12:41:07.382Z,52.90
2018-06-23T12:43:35.835Z,52.90
2018-06-23T12:46:04.265Z,53.40
2018-06-23T12:48:32.613Z,54.30
2018-06-23T12:51:00.871Z,55.70
2018-06-23T12:55:57.123Z,60.30
2018-06-23T12:58:25.474Z,62.40
2018-06-23T13:00:53.934Z,63.60
2018-06-23T13:03:22.229Z,62.50
2018-06-23T13:05:50.441Z,60.20
2018-06-23T13:08:19.566Z,58.70
2018-06-23T13:10:47.843Z,58.60
2018-06-23T13:13:16.119Z,57.60
2018-06-23T13:15:44.360Z,56.90
2018-06-23T13:18:12.620Z,58.40
2018-06-23T13:20:41.535Z,58.60
2018-06-23T13:23:09.995Z,62.90
2018-06-23T13:25:38.259Z,69.20
2018-06-23T13:28:06.675Z,70.50
2018-06-23T13:30:35.043Z,71.50
2018-06-23T13:33:03.314Z,71.40
2018-06-23T13:35:31.559Z,68.70
2018-06-23T13:37:59.889Z,70.40
2018-06-23T13:40:28.184Z,69.00
2018-06-23T13:42:56.455Z,65.00
2018-06-23T13:45:25.075Z,67.90
2018-06-23T13:47:53.389Z,65.40
2018-06-23T13:50:21.722Z,65.30
2018-06-23T13:52:49.975Z,64.60
2018-06-23T13:55:18.209Z,63.50
2018-06-23T13:57:46.464Z,61.70
2018-06-23T14:00:14.739Z,63.20
2018-06-23T14:02:43.006Z,64.90
2018-06-23T14:05:11.229Z,66.10
2018-06-23T14:07:39.526Z,65.60
2018-06-23T14:10:07.777Z,64.80
2018-06-23T14:12:36.219Z,63.10
2018-06-23T14:15:04.536Z,64.00
2018-06-23T14:17:32.798Z,66.20
2018-06-23T14:20:01.196Z,64.60
2018-06-23T14:22:29.428Z,66.10
2018-06-23T14:24:57.690Z,67.30
2018-06-23T14:29:53.955Z,65.60
2018-06-23T14:32:22.480Z,65.90
2018-06-23T14:34:50.593Z,66.80
2018-06-23T14:37:18.848Z,64.80
2018-06-23T14:39:47.100Z,64.10
2018-06-23T14:42:15.779Z,65.20
2018-06-23T14:44:44.017Z,64.30
2018-06-23T14:47:12.272Z,63.30
2018-06-23T14:49:40.533Z,63.60
2018-06-23T14:54:36.799Z,64.80
2018-06-23T14:57:05.180Z,64.80
2018-06-23T14:59:33.552Z,65.20
2018-06-23T15:02:01.756Z,64.90
2018-06-23T15:04:30.288Z,65.50
2018-06-23T15:06:58.500Z,64.20
2018-06-23T15:11:39.690Z,64.30
2018-06-23T15:14:08.125Z,64.50
2018-06-23T15:16:36.408Z,65.00
2018-06-23T15:19:04.813Z,66.50
2018-06-23T15:21:33.043Z,65.30
2018-06-23T15:24:01.347Z,65.60
2018-06-23T15:26:29.585Z,66.50
2018-06-23T15:28:57.824Z,65.40
2018-06-23T15:31:26.562Z,65.70
2018-06-23T15:33:54.830Z,66.30
2018-06-23T15:36:23.078Z,67.20
2018-06-23T15:38:51.327Z,67.10
2018-06-23T15:41:19.591Z,67.00
2018-06-23T15:43:47.852Z,67.00
2018-06-23T15:46:16.083Z,67.40
2018-06-23T15:48:44.539Z,66.90
2018-06-23T15:51:12.790Z,67.80
2018-06-23T15:53:41.051Z,68.50
2018-06-23T15:56:09.323Z,68.70
2018-06-23T15:58:37.836Z,68.50
2018-06-23T16:01:06.111Z,68.40
2018-06-23T16:03:34.326Z,68.90
2018-06-23T16:06:02.623Z,69.70
2018-06-23T16:08:30.911Z,72.20
2018-06-23T16:10:59.287Z,79.40
2018-06-23T16:13:27.499Z,84.90
2018-06-23T16:15:55.753Z,87.60
2018-06-23T16:18:23.959Z,90.80
2018-06-23T16:20:52.323Z,91.30
2018-06-23T16:23:20.561Z,91.80
2018-06-23T16:25:48.903Z,92.10
2018-06-23T16:28:17.275Z,91.90
2018-06-23T16:30:45.532Z,91.00
2018-06-23T16:33:13.807Z,91.60
2018-06-23T16:35:42.195Z,91.90
2018-06-23T16:38:10.400Z,91.30
2018-06-23T16:43:06.684Z,90.50
2018-06-23T16:45:34.955Z,88.30
2018-06-23T16:48:03.243Z,86.80
2018-06-23T16:50:31.759Z,86.00
2018-06-23T16:53:00.040Z,83.10
2018-06-23T16:57:56.375Z,83.80
2018-06-23T17:00:24.615Z,84.00
2018-06-23T17:02:52.873Z,83.40
2018-06-23T17:05:21.114Z,84.40
2018-06-23T17:07:49.466Z,83.80
2018-06-23T17:10:17.824Z,84.00
2018-06-23T17:12:46.067Z,84.70
2018-06-23T17:15:14.335Z,83.40
2018-06-23T17:17:42.596Z,83.40
2018-06-23T17:22:38.948Z,84.00
2018-06-23T17:25:07.175Z,82.10
2018-06-23T17:27:35.400Z,83.40
2018-06-23T17:30:03.801Z,82.80
2018-06-23T17:32:32.020Z,82.70
2018-06-23T17:35:00.226Z,83.20
2018-06-23T17:37:28.558Z,83.20
2018-06-23T17:39:56.906Z,82.80
2018-06-23T17:42:25.212Z,83.30
2018-06-23T17:44:53.440Z,82.30
2018-06-23T17:47:21.687Z,83.20
2018-06-23T17:49:49.903Z,84.20
2018-06-23T17:52:18.189Z,85.70
2018-06-23T17:54:46.434Z,85.90
2018-06-23T17:57:14.706Z,87.10
2018-06-23T17:59:42.920Z,88.10
2018-06-23T18:02:11.246Z,89.60
2018-06-23T18:04:39.448Z,90.10
2018-06-23T18:07:07.735Z,90.50
2018-06-23T18:09:35.983Z,91.10
2018-06-23T18:12:04.222Z,91.20
2018-06-23T18:14:32.479Z,91.70
2018-06-23T18:17:00.717Z,91.90
2018-06-23T18:19:29.012Z,91.90
2018-06-23T18:21:57.315Z,92.10
2018-06-23T18:24:25.615Z,92.00
2018-06-23T18:26:53.834Z,92.50
2018-06-23T18:29:22.069Z,92.60
2018-06-23T18:31:50.624Z,92.60
2018-06-23T18:34:18.917Z,93.10
2018-06-23T18:39:15.245Z,93.60
2018-06-23T18:41:44.131Z,93.10
2018-06-23T18:44:12.375Z,93.20
2018-06-23T18:46:40.659Z,93.50
2018-06-23T18:49:08.971Z,93.80
2018-06-23T18:51:37.212Z,93.80
2018-06-23T18:54:05.446Z,94.00
2018-06-23T18:56:33.782Z,93.70
2018-06-23T18:59:02.024Z,93.90
2018-06-23T19:01:30.276Z,94.10
2018-06-23T19:03:58.528Z,94.10
2018-06-23T19:06:26.819Z,94.50
2018-06-23T19:08:55.176Z,94.60
2018-06-23T19:11:23.343Z,95.20
2018-06-23T19:13:51.576Z,95.70
2018-06-23T19:16:19.827Z,96.40
2018-06-23T19:18:48.053Z,96.80
2018-06-23T19:21:16.300Z,97.30
2018-06-23T19:23:44.905Z,97.50
2018-06-23T19:26:13.147Z,97.90
2018-06-23T19:28:41.363Z,98.10
2018-06-23T19:33:37.611Z,99.10
2018-06-23T19:36:05.859Z,98.80
2018-06-23T19:38:34.087Z,99.20
2018-06-23T19:41:07.394Z,99.40
2018-06-23T19:43:35.610Z,99.50
2018-06-23T19:46:03.848Z,99.90
2018-06-23T19:48:32.065Z,99.90
2018-06-23T19:51:00.316Z,99.90
2018-06-23T19:53:28.569Z,99.90
2018-06-23T19:55:56.823Z,99.90
2018-06-23T19:58:25.066Z,99.90
2018-06-23T20:00:53.295Z,99.90
2018-06-23T20:03:21.512Z,99.90
2018-06-23T20:05:50.848Z,99.90
2018-06-23T20:08:19.091Z,99.90
2018-06-23T20:13:15.350Z,99.90
2018-06-23T20:15:43.607Z,99.90
2018-06-23T20:18:11.856Z,99.90
2018-06-23T20:20:40.139Z,99.90
2018-06-23T20:23:08.392Z,99.90
2018-06-23T20:25:36.664Z,99.90
2018-06-23T20:28:04.938Z,99.90
2018-06-23T20:30:33.459Z,99.90
2018-06-23T20:33:01.696Z,99.90
2018-06-23T20:35:29.927Z,99.90
2018-06-23T20:37:58.162Z,99.90
2018-06-23T20:40:26.396Z,99.90
2018-06-23T20:45:22.595Z,99.90
2018-06-23T20:50:19.834Z,99.90
2018-06-23T20:52:48.103Z,99.90
2018-06-23T20:55:16.323Z,99.90
2018-06-23T20:57:44.575Z,99.90
2018-06-23T21:00:12.805Z,99.90
2018-06-23T21:02:41.047Z,99.90
2018-06-23T21:05:09.295Z,99.90
2018-06-23T21:07:37.556Z,99.90
2018-06-23T21:10:06.003Z,99.90
2018-06-23T21:12:34.243Z,99.90
2018-06-23T21:15:02.492Z,99.90
2018-06-23T21:17:30.731Z,99.90
2018-06-23T21:19:58.955Z,99.90
2018-06-23T21:24:55.271Z,99.90
2018-06-23T21:27:23.539Z,99.90
2018-06-23T21:29:51.788Z,99.90
2018-06-23T21:32:20.048Z,99.90
2018-06-23T21:34:48.279Z,99.90
2018-06-23T21:37:16.519Z,99.90
2018-06-23T21:39:44.766Z,99.90
2018-06-23T21:42:13.011Z,99.90
2018-06-23T21:44:41.256Z,99.90
2018-06-23T21:47:09.500Z,99.90
2018-06-23T21:49:37.708Z,99.90
2018-06-23T21:52:06.007Z,99.90
2018-06-23T21:54:34.243Z,99.90
2018-06-23T21:57:02.455Z,99.90
2018-06-23T21:59:30.769Z,99.90
2018-06-23T22:01:59.026Z,99.90
2018-06-23T22:04:27.514Z,99.90
2018-06-23T22:06:55.760Z,99.90
2018-06-23T22:09:24.120Z,99.90
2018-06-23T22:11:52.531Z,99.90
2018-06-23T22:14:20.812Z,99.90
2018-06-23T22:16:49.129Z,99.90
2018-06-23T22:19:17.375Z,99.90
2018-06-23T22:21:45.616Z,99.90
2018-06-23T22:24:13.984Z,99.90
2018-06-23T22:26:42.271Z,99.90
2018-06-23T22:29:10.540Z,99.90
2018-06-23T22:31:38.791Z,99.90
2018-06-23T22:34:07.139Z,99.90
2018-06-23T22:36:35.438Z,99.90
2018-06-23T22:39:05.781Z,99.90
2018-06-23T22:41:34.120Z,99.90
2018-06-23T22:44:02.399Z,99.90
2018-06-23T22:46:30.648Z,99.90
2018-06-23T22:48:59.244Z,99.90
2018-06-23T22:51:27.499Z,99.90
2018-06-23T22:53:55.764Z,99.90
2018-06-23T22:56:24.804Z,99.90
2018-06-23T22:58:53.080Z,99.90
2018-06-23T23:01:21.376Z,99.90
2018-06-23T23:03:49.647Z,99.90
2018-06-23T23:06:17.895Z,99.90
2018-06-23T23:08:46.200Z,99.90
2018-06-23T23:11:14.504Z,99.90
2018-06-23T23:13:42.740Z,99.90
2018-06-23T23:16:10.999Z,99.90
2018-06-23T23:18:39.220Z,99.90
2018-06-23T23:23:35.533Z,99.90
2018-06-23T23:26:03.812Z,99.90
2018-06-23T23:28:32.040Z,99.90
2018-06-23T23:31:00.395Z,99.90
2018-06-23T23:33:28.600Z,99.90
2018-06-23T23:35:56.855Z,99.90
2018-06-23T23:38:25.092Z,99.90
2018-06-23T23:40:53.371Z,99.90
2018-06-23T23:43:21.592Z,99.90
2018-06-23T23:45:49.843Z,99.90
2018-06-23T23:50:46.096Z,99.90
2018-06-23T23:53:14.319Z,99.90
2018-06-23T23:55:42.570Z,99.90
2018-06-23T23:58:10.824Z,99.90
